.
Local / Fort Wayne - NE Ind.

U N D E R   C O N S T R U C T I O N

Local Weather
Fort Wayne – NE Indiana

Northern Indiana (IWX) Radar

Latest IWX NEXRAD
Base Reflectivity



Latest IWX NEXRAD
Base Velocity

Indiana-Ohio Visible Satellite

For infrared and water vapor imagery, see Great Lakes - Midwest.

Current Conditions

Recent report from the Fort Wayne International Airport

Nov 24, 2017 - 05:54 AM EST / 2017.11.24 1054 UTC


The skies are clear. The temperature is 30.9 F (-0.6 C) and the dew point is 25.0 F (-3.9 C), giving a relative humidity of 78%. The barometric pressure is 29.9 in. Hg (1012 hPa). The wind is from the SSW (210 degrees) at 7 MPH (6 KT) creating a wind chill temperature of 24 F (-4 C), and the visibility is 10 mile(s).

KFWA 241054Z 21006KT 10SM CLR M01/M04 A2990 RMK AO2 SLP132 T10061039

Local Weather — Contents

Local Weather — Links

CoCoRaHS
IN-AL-39
A2 Web Hosting
Creative Commons License
GoDaddy
Look for:

loaded 2017-11-24 06:16:04 • last modified 2017-02-11 13:27:36
Privacy PolicyDisclaimer
• wx.awcolley.com is powered by PmWiki v.2002016 •
• all content (unless otherwise noted) © 2017 A W Colley